Time;durP1;ratioP1;P1;durP2;ratioP2;P2;SDS_P1;SDS_P2;PMS_P1;PMS_P2;Temp;Humidity;BMP_temperature;BMP_pressure;BME280_temperature;BME280_humidity;BME280_pressure;Samples;Min_cycle;Max_cycle;Signal;HPM_P1;HPM_P2
2021/04/17 00:02:32;;;;;;;15.20;13.77;;;;;;;4.81;100.00;100479.42;232802;1202;103562;-71
2021/04/17 00:07:33;;;;;;;17.53;15.70;;;;;;;4.89;100.00;100475.76;232815;1203;103555;-71
2021/04/17 00:12:35;;;;;;;16.10;14.30;;;;;;;4.93;100.00;100472.16;233637;1202;103133;-71
2021/04/17 00:17:37;;;;;;;17.55;15.85;;;;;;;4.81;100.00;100468.85;234641;1203;103203;-71
2021/04/17 00:22:39;;;;;;;17.27;15.10;;;;;;;4.87;100.00;100464.33;233044;1203;103188;-70
2021/04/17 00:27:40;;;;;;;17.15;15.45;;;;;;;4.87;100.00;100460.83;232965;1202;104334;-71
2021/04/17 00:32:42;;;;;;;13.93;12.53;;;;;;;4.79;100.00;100463.60;232935;1203;103552;-71
2021/04/17 00:37:43;;;;;;;15.83;14.23;;;;;;;4.85;100.00;100465.25;232801;1203;103207;-71
2021/04/17 00:42:45;;;;;;;14.13;12.17;;;;;;;4.72;100.00;100464.59;232830;1203;103215;-70
2021/04/17 00:47:47;;;;;;;17.90;16.00;;;;;;;4.75;100.00;100469.81;232977;1203;103181;-73
2021/04/17 00:52:48;;;;;;;16.80;15.10;;;;;;;4.70;100.00;100463.73;233151;1202;103159;-70
2021/04/17 00:57:50;;;;;;;15.65;13.95;;;;;;;4.83;100.00;100465.29;232985;1203;103201;-71
2021/04/17 01:02:58;;;;;;;15.30;13.23;;;;;;;4.74;100.00;100460.14;232961;1203;103210;-72
2021/04/17 01:08:04;;;;;;;16.33;14.13;;;;;;;4.70;100.00;100461.09;233155;1203;103699;-70
2021/04/17 01:13:09;;;;;;;13.30;11.95;;;;;;;4.72;100.00;100462.81;232866;1203;103315;-71
2021/04/17 01:18:11;;;;;;;13.40;12.00;;;;;;;4.73;100.00;100463.67;232901;1203;103216;-70
2021/04/17 01:23:33;;;;;;;16.00;11.80;;;;;;;4.52;100.00;100460.44;232762;1203;103655;-71
2021/04/17 01:28:38;;;;;;;13.20;11.83;;;;;;;4.70;100.00;100469.02;232837;1203;103558;-71
2021/04/17 01:33:45;;;;;;;13.03;11.63;;;;;;;4.54;100.00;100463.08;232822;1203;103214;-71
2021/04/17 01:38:56;;;;;;;11.15;10.03;;;;;;;4.56;100.00;100462.16;232782;1202;103731;-70
2021/04/17 01:44:01;;;;;;;12.45;11.08;;;;;;;4.56;100.00;100461.27;232833;1203;103143;-71
2021/04/17 01:49:05;;;;;;;;;;;;;;;4.67;100.00;100453.20;233590;1209;103124;-70
2021/04/17 01:54:12;;;;;;;12.57;11.37;;;;;;;4.58;100.00;100455.07;232890;1203;103229;-68
2021/04/17 01:59:21;;;;;;;13.50;11.10;;;;;;;4.66;100.00;100459.38;232898;1203;104569;-70
2021/04/17 02:04:23;;;;;;;11.87;10.67;;;;;;;4.59;100.00;100462.10;232932;1203;103517;-70
2021/04/17 02:09:24;;;;;;;11.65;9.90;;;;;;;4.59;100.00;100459.46;232792;1203;103133;-71
2021/04/17 02:14:26;;;;;;;10.60;9.50;;;;;;;4.51;100.00;100466.61;232807;1203;103136;-71
2021/04/17 02:19:35;;;;;;;12.25;10.25;;;;;;;4.50;100.00;100461.36;232776;1203;103191;-71
2021/04/17 02:24:39;;;;;;;12.40;10.48;;;;;;;4.49;100.00;100473.70;232759;1202;103216;-70
2021/04/17 02:29:40;;;;;;;11.95;10.75;;;;;;;4.52;100.00;100476.28;232948;1203;103283;-71
2021/04/17 02:34:43;;;;;;;11.77;10.57;;;;;;;4.58;100.00;100465.63;232797;1203;103727;-71
2021/04/17 02:39:45;;;;;;;12.10;10.90;;;;;;;4.46;100.00;100466.70;232875;1203;103226;-71
2021/04/17 02:44:46;;;;;;;12.45;11.18;;;;;;;4.38;100.00;100462.40;232872;1203;103174;-69
2021/04/17 02:49:47;;;;;;;14.43;10.20;;;;;;;4.42;100.00;100458.84;232844;1203;103207;-71
2021/04/17 02:54:49;;;;;;;15.10;11.23;;;;;;;4.48;100.00;100461.39;232858;1202;103698;-71
2021/04/17 02:59:50;;;;;;;11.43;9.60;;;;;;;4.42;100.00;100464.12;232809;1203;103111;-72
2021/04/17 03:04:52;;;;;;;15.78;13.98;;;;;;;4.58;100.00;100470.91;232884;1203;103136;-71
2021/04/17 03:09:53;;;;;;;18.50;11.55;;;;;;;4.50;100.00;100464.89;232889;1202;103198;-71
2021/04/17 03:14:54;;;;;;;11.50;10.40;;;;;;;4.47;100.00;100457.00;232901;1203;103213;-70
2021/04/17 03:19:56;;;;;;;13.50;12.10;;;;;;;4.49;100.00;100460.50;232807;1203;103289;-71
2021/04/17 03:24:57;;;;;;;13.38;11.98;;;;;;;4.39;100.00;100474.70;232902;1203;103149;-71
2021/04/17 03:29:59;;;;;;;14.63;12.33;;;;;;;4.43;100.00;100468.51;233215;1202;103526;-70
2021/04/17 03:35:01;;;;;;;12.90;11.70;;;;;;;4.43;100.00;100477.29;233266;1202;103210;-71
2021/04/17 03:40:05;;;;;;;12.60;11.13;;;;;;;4.42;100.00;100478.17;233044;1203;104583;-71
2021/04/17 03:45:07;;;;;;;13.60;11.13;;;;;;;4.40;100.00;100482.63;233007;1203;103277;-70
2021/04/17 03:50:10;;;;;;;15.80;14.30;;;;;;;4.52;100.00;100476.28;232962;1202;103235;-71
2021/04/17 03:55:14;;;;;;;14.28;12.60;;;;;;;4.44;100.00;100480.82;232996;1201;103593;-71
2021/04/17 04:00:19;;;;;;;14.80;12.50;;;;;;;4.54;100.00;100479.78;232914;1203;103169;-71
2021/04/17 04:05:21;;;;;;;15.50;13.00;;;;;;;4.49;100.00;100486.02;232961;1203;103168;-72
2021/04/17 04:10:22;;;;;;;19.60;16.20;;;;;;;4.52;100.00;100488.63;232732;1203;103542;-71
2021/04/17 04:15:24;;;;;;;16.90;14.47;;;;;;;4.47;100.00;100483.41;232793;1203;103206;-72
2021/04/17 04:20:25;;;;;;;16.77;14.93;;;;;;;4.51;100.00;100490.38;232765;1203;103220;-70
2021/04/17 04:25:27;;;;;;;17.30;14.70;;;;;;;4.66;100.00;100489.31;232813;1203;103524;-71
2021/04/17 04:30:29;;;;;;;14.43;12.93;;;;;;;4.65;100.00;100494.62;232807;1203;103187;-71
2021/04/17 04:35:30;;;;;;;14.90;12.97;;;;;;;4.60;100.00;100492.89;232764;1203;103204;-71
2021/04/17 04:40:32;;;;;;;16.35;14.20;;;;;;;4.54;100.00;100494.77;232754;1203;103226;-69
2021/04/17 04:45:33;;;;;;;19.58;15.43;;;;;;;4.71;100.00;100500.67;232916;1202;103207;-71
2021/04/17 04:50:36;;;;;;;15.88;13.98;;;;;;;4.80;100.00;100507.58;233283;1203;103210;-71
2021/04/17 04:55:37;;;;;;;14.40;12.53;;;;;;;4.77;100.00;100520.84;233202;1201;103206;-71
2021/04/17 05:00:38;;;;;;;15.43;13.13;;;;;;;4.87;100.00;100517.16;232858;1203;103571;-73
2021/04/17 05:05:40;;;;;;;16.40;13.93;;;;;;;4.65;100.00;100515.74;232777;1203;103152;-71
2021/04/17 05:10:42;;;;;;;15.13;13.63;;;;;;;4.70;100.00;100519.19;232790;1202;103213;-74
2021/04/17 05:15:43;;;;;;;14.50;11.75;;;;;;;4.71;100.00;100518.30;233512;1203;103136;-69
2021/04/17 05:20:45;;;;;;;14.58;12.63;;;;;;;4.85;100.00;100516.34;232819;1203;103140;-69
2021/04/17 05:25:46;;;;;;;13.33;11.98;;;;;;;4.82;100.00;100526.93;233488;1202;103203;-72
2021/04/17 05:30:47;;;;;;;15.90;13.17;;;;;;;4.76;100.00;100532.30;232852;1202;103229;-71
2021/04/17 05:35:49;;;;;;;18.95;14.20;;;;;;;4.91;100.00;100540.02;232873;1202;103136;-72
2021/04/17 05:40:50;;;;;;;16.15;14.00;;;;;;;5.00;100.00;100535.50;232935;1201;103641;-71
2021/04/17 05:45:52;;;;;;;13.23;12.03;;;;;;;5.05;100.00;100531.02;232893;1203;103139;-71
2021/04/17 05:50:54;;;;;;;14.37;12.83;;;;;;;4.92;100.00;100535.59;232833;1203;103283;-71
2021/04/17 05:55:55;;;;;;;15.15;12.45;;;;;;;4.88;100.00;100536.55;232799;1203;103600;-71
2021/04/17 06:00:57;;;;;;;15.33;13.83;;;;;;;4.93;100.00;100535.56;232864;1203;103597;-72
2021/04/17 06:05:58;;;;;;;17.30;15.20;;;;;;;5.05;100.00;100534.52;232811;1202;103152;-71
2021/04/17 06:11:00;;;;;;;17.63;14.50;;;;;;;5.07;100.00;100539.80;232886;1203;103143;-70
2021/04/17 06:16:04;;;;;;;23.10;18.30;;;;;;;5.28;100.00;100540.36;233086;1203;103191;-72
2021/04/17 06:21:07;;;;;;;17.87;14.53;;;;;;;5.31;100.00;100541.19;233170;1177;114960;-71
2021/04/17 06:26:08;;;;;;;18.87;14.77;;;;;;;5.14;100.00;100537.92;232714;1177;115043;-71
2021/04/17 06:31:10;;;;;;;18.90;15.50;;;;;;;5.14;100.00;100543.20;232477;1177;114993;-70
2021/04/17 06:36:12;;;;;;;21.73;15.60;;;;;;;5.30;100.00;100549.13;232845;1175;115035;-72
2021/04/17 06:41:15;;;;;;;18.80;15.37;;;;;;;5.46;100.00;100555.92;232982;1176;115327;-71
2021/04/17 06:46:19;;;;;;;24.25;17.45;;;;;;;5.62;100.00;100560.96;232558;1177;115700;-70
2021/04/17 06:51:22;;;;;;;23.93;16.83;;;;;;;5.70;100.00;100553.77;232569;1177;114979;-71
2021/04/17 06:56:26;;;;;;;21.50;16.10;;;;;;;5.74;100.00;100566.89;232962;1176;115216;-71
2021/04/17 07:01:29;;;;;;;21.15;15.65;;;;;;;5.74;100.00;100566.03;232952;1176;114871;-72
2021/04/17 07:06:31;;;;;;;25.23;16.50;;;;;;;5.73;100.00;100577.50;232796;1177;114978;-72
2021/04/17 07:11:33;;;;;;;24.60;17.37;;;;;;;5.71;100.00;100577.55;232929;1177;114989;-73
2021/04/17 07:16:57;;;;;;;20.88;16.28;;;;;;;5.83;100.00;100573.81;232696;1176;115517;-71
2021/04/17 07:22:23;;;;;;;19.63;14.28;;;;;;;5.80;100.00;100581.80;232830;1176;114933;-71
2021/04/17 07:27:37;;;;;;;28.83;17.63;;;;;;;5.90;100.00;100572.81;232486;1177;115123;-71
2021/04/17 07:32:38;;;;;;;22.65;16.58;;;;;;;5.90;100.00;100578.10;232651;1177;114951;-70
2021/04/17 07:37:42;;;;;;;25.30;17.40;;;;;;;5.92;100.00;100574.56;233056;1176;114844;-70
2021/04/17 07:42:49;;;;;;;23.83;16.23;;;;;;;5.99;100.00;100581.52;232870;1176;115142;-72
2021/04/17 07:47:53;;;;;;;23.90;16.30;;;;;;;6.19;100.00;100583.78;232632;1177;115391;-71
2021/04/17 07:52:55;;;;;;;32.60;18.97;;;;;;;6.10;100.00;100598.06;232420;1177;114837;-70
2021/04/17 07:57:57;;;;;;;27.20;18.75;;;;;;;6.13;100.00;100600.64;232692;1177;114876;-70
2021/04/17 08:02:59;;;;;;;33.70;22.50;;;;;;;6.20;100.00;100591.69;232827;1176;115272;-71
2021/04/17 08:08:01;;;;;;;35.05;22.95;;;;;;;6.26;100.00;100595.14;232378;1176;115024;-72
2021/04/17 08:13:07;;;;;;;36.60;23.70;;;;;;;6.28;100.00;100609.20;232262;1177;208171;-73
2021/04/17 08:18:09;;;;;;;40.85;25.95;;;;;;;6.35;100.00;100601.13;232586;1177;114892;-70
2021/04/17 08:23:11;;;;;;;36.20;24.40;;;;;;;6.35;100.00;100605.53;232762;1176;114907;-72
2021/04/17 08:28:21;;;;;;;33.73;23.57;;;;;;;6.38;100.00;100606.34;232504;1176;115411;-71
2021/04/17 08:33:23;;;;;;;40.70;30.65;;;;;;;6.49;100.00;100608.78;232440;1177;114939;-72
2021/04/17 08:38:35;;;;;;;53.00;33.93;;;;;;;6.56;100.00;100603.36;233132;1176;114870;-73
2021/04/17 08:43:37;;;;;;;49.40;31.63;;;;;;;6.51;100.00;100611.43;233872;1202;103520;-71
2021/04/17 08:49:00;;;;;;;44.80;28.23;;;;;;;6.48;100.00;100607.07;232738;1203;103280;-72
2021/04/17 08:54:01;;;;;;;45.40;30.37;;;;;;;6.54;100.00;100617.54;233680;1203;103188;-71
2021/04/17 08:59:09;;;;;;;44.93;31.00;;;;;;;6.53;100.00;100620.20;232962;1203;103200;-71
2021/04/17 09:04:12;;;;;;;48.30;30.57;;;;;;;6.50;100.00;100609.68;233070;1202;103143;-72
2021/04/17 09:09:16;;;;;;;44.30;29.50;;;;;;;6.59;100.00;100613.91;232829;1203;103178;-74
2021/04/17 09:14:27;;;;;;;44.53;28.38;;;;;;;6.67;100.00;100614.64;232892;1203;103213;-71
2021/04/17 09:19:41;;;;;;;46.73;31.40;;;;;;;6.73;100.00;100611.86;232996;1202;103213;-72
2021/04/17 09:24:42;;;;;;;51.85;31.10;;;;;;;6.78;100.00;100615.28;233931;1203;103204;-72
2021/04/17 09:29:44;;;;;;;51.90;32.73;;;;;;;6.85;100.00;100610.73;233469;1203;103581;-71
2021/04/17 09:34:45;;;;;;;51.10;33.07;;;;;;;6.97;100.00;100620.20;232758;1203;103194;-72
2021/04/17 09:39:47;;;;;;;51.20;33.97;;;;;;;6.91;100.00;100620.34;233259;1203;103233;-71
2021/04/17 09:44:50;;;;;;;51.50;32.15;;;;;;;6.83;100.00;100634.63;232810;1202;103159;-72
2021/04/17 09:49:53;;;;;;;45.80;31.30;;;;;;;6.84;100.00;100635.48;232855;1203;103580;-72
2021/04/17 09:55:00;;;;;;;47.28;31.25;;;;;;;6.91;100.00;100633.59;232940;1203;103200;-71
2021/04/17 10:00:04;;;;;;;55.90;34.10;;;;;;;7.07;100.00;100634.99;232883;1202;103139;-71
2021/04/17 10:05:06;;;;;;;57.47;34.73;;;;;;;7.06;100.00;100641.19;232963;1203;103226;-72
2021/04/17 10:10:10;;;;;;;49.43;34.17;;;;;;;7.02;100.00;100644.83;232870;1203;103175;-71
2021/04/17 10:15:32;;;;;;;55.23;35.60;;;;;;;7.09;100.00;100637.60;232974;1203;103219;-71
2021/04/17 10:20:34;;;;;;;55.13;39.93;;;;;;;7.25;100.00;100635.51;232805;1203;103157;-74
2021/04/17 10:25:43;;;;;;;60.20;41.55;;;;;;;7.33;100.00;100638.83;233090;1203;103147;-71
2021/04/17 10:30:48;;;;;;;69.67;46.57;;;;;;;7.41;100.00;100636.88;233634;1203;103399;-71
2021/04/17 10:35:55;;;;;;;66.20;46.47;;;;;;;7.52;100.00;100644.59;233587;1203;103216;-71
2021/04/17 10:41:00;;;;;;;64.25;44.55;;;;;;;7.67;100.00;100648.69;233121;1203;103219;-72
2021/04/17 10:46:05;;;;;;;64.18;47.25;;;;;;;7.75;100.00;100646.69;232958;1201;103188;-68
2021/04/17 10:51:11;;;;;;;61.70;42.70;;;;;;;7.91;100.00;100652.52;232866;1202;103219;-72
2021/04/17 10:56:18;;;;;;;53.25;37.35;;;;;;;8.05;100.00;100648.64;232806;1203;103306;-72
2021/04/17 11:01:25;;;;;;;49.90;36.90;;;;;;;8.24;100.00;100651.70;233008;1203;103209;-71
2021/04/17 11:06:32;;;;;;;46.55;34.40;;;;;;;8.14;100.00;100649.27;232890;1203;103625;-72
2021/04/17 11:11:35;;;;;;;41.67;32.07;;;;;;;8.14;100.00;100654.59;233038;1203;103142;-71
2021/04/17 11:16:47;;;;;;;42.87;31.63;;;;;;;8.23;100.00;100647.30;232867;1203;103185;-72
2021/04/17 11:22:10;;;;;;;37.65;30.45;;;;;;;8.43;100.00;100652.95;232887;1203;103245;-71
2021/04/17 11:27:11;;;;;;;41.53;31.53;;;;;;;8.40;100.00;100660.98;233540;1203;103217;-71
2021/04/17 11:32:13;;;;;;;46.85;33.05;;;;;;;8.25;100.00;100664.05;232922;1202;103519;-72
2021/04/17 11:37:15;;;;;;;43.90;34.07;;;;;;;8.25;100.00;100662.28;233018;1203;103139;-72
2021/04/17 11:42:17;;;;;;;41.23;33.67;;;;;;;8.27;100.00;100664.88;233086;1203;103235;-72
2021/04/17 11:47:19;;;;;;;38.18;31.40;;;;;;;8.26;100.00;100664.03;233198;1203;103281;-71
2021/04/17 11:52:21;;;;;;;35.75;26.80;;;;;;;8.25;100.00;100666.70;232877;1203;103222;-73
2021/04/17 11:57:22;;;;;;;25.58;22.50;;;;;;;8.28;100.00;100663.98;232737;1202;103709;-72
2021/04/17 12:02:26;;;;;;;27.43;23.75;;;;;;;8.38;100.00;100672.57;233053;1202;103133;-71
2021/04/17 12:07:27;;;;;;;27.00;22.87;;;;;;;8.38;100.00;100660.18;232868;1203;103177;-71
2021/04/17 12:12:29;;;;;;;22.75;19.65;;;;;;;8.32;100.00;100662.11;232801;1203;103256;-72
2021/04/17 12:17:30;;;;;;;21.45;17.55;;;;;;;8.35;100.00;100664.70;232733;1203;103488;-70
2021/04/17 12:22:32;;;;;;;20.23;16.80;;;;;;;8.45;100.00;100659.11;232763;1203;103491;-73
2021/04/17 12:27:34;;;;;;;20.40;17.97;;;;;;;8.53;100.00;100658.05;232844;1203;103159;-71
2021/04/17 12:32:35;;;;;;;27.90;22.40;;;;;;;8.53;100.00;100661.57;232950;1203;103114;-71
2021/04/17 12:37:37;;;;;;;33.00;24.80;;;;;;;8.48;100.00;100663.48;232777;1203;103264;-71
2021/04/17 12:42:39;;;;;;;43.30;34.00;;;;;;;8.59;100.00;100665.86;233123;1202;103207;-71
2021/04/17 12:47:41;;;;;;;36.40;27.00;;;;;;;8.84;100.00;100649.20;233088;1203;103497;-71
2021/04/17 12:52:43;;;;;;;31.60;25.93;;;;;;;8.98;100.00;100641.70;232852;1203;103229;-72
2021/04/17 12:57:44;;;;;;;34.73;26.43;;;;;;;8.94;100.00;100640.06;233520;1202;103201;-72
2021/04/17 13:02:46;;;;;;;31.18;25.93;;;;;;;8.84;100.00;100651.86;232779;1203;103331;-71
2021/04/17 13:07:48;;;;;;;29.00;25.80;;;;;;;8.88;100.00;100650.88;232873;1203;103590;-71
2021/04/17 13:12:49;;;;;;;35.55;29.65;;;;;;;8.96;100.00;100659.48;232764;1203;103597;-70
2021/04/17 13:17:52;;;;;;;37.80;30.30;;;;;;;9.00;100.00;100649.63;232863;1202;103210;-71
2021/04/17 13:22:55;;;;;;;34.47;27.13;;;;;;;8.97;100.00;100660.37;232800;1203;103198;-72
2021/04/17 13:27:57;;;;;;;33.83;26.50;;;;;;;9.00;100.00;100669.13;232828;1202;103213;-71
2021/04/17 13:32:59;;;;;;;35.87;30.17;;;;;;;9.02;100.00;100664.61;232762;1203;103194;-71
2021/04/17 13:38:00;;;;;;;34.25;29.90;;;;;;;9.01;100.00;100651.38;232865;1203;103235;-72
2021/04/17 13:43:02;;;;;;;33.30;28.65;;;;;;;9.09;100.00;100652.88;233746;1203;103136;-73
2021/04/17 13:48:04;;;;;;;36.15;28.60;;;;;;;9.30;100.00;100650.52;233771;1202;103523;-71
2021/04/17 13:53:05;;;;;;;28.27;25.07;;;;;;;9.21;100.00;100648.13;234379;1202;103242;-70
2021/04/17 13:58:07;;;;;;;28.83;24.55;;;;;;;9.12;100.00;100654.60;233909;1203;103888;-72
2021/04/17 14:03:08;;;;;;;30.77;24.43;;;;;;;9.20;100.00;100651.70;232764;1203;103501;-74
2021/04/17 14:08:10;;;;;;;26.40;23.25;;;;;;;9.21;100.00;100658.77;232949;1203;103225;-72
2021/04/17 14:13:13;;;;;;;26.67;21.80;;;;;;;9.58;100.00;100657.64;233008;1202;103239;-73
2021/04/17 14:18:15;;;;;;;26.60;23.55;;;;;;;9.64;100.00;100652.12;233531;1203;103376;-72
2021/04/17 14:23:17;;;;;;;24.20;21.60;;;;;;;9.71;100.00;100642.13;233403;1203;103137;-72
2021/04/17 14:28:18;;;;;;;24.25;21.75;;;;;;;9.76;100.00;100637.52;233049;1203;103213;-72
2021/04/17 14:33:20;;;;;;;26.80;23.90;;;;;;;10.42;100.00;100628.25;232993;1203;103238;-71
2021/04/17 14:38:21;;;;;;;26.45;23.45;;;;;;;12.05;100.00;100630.88;232763;1202;103634;-72
2021/04/17 14:43:25;;;;;;;24.90;22.25;;;;;;;10.95;100.00;100628.06;233547;1203;103393;-72
2021/04/17 14:48:27;;;;;;;26.30;23.60;;;;;;;10.68;100.00;100636.16;233757;1203;103207;-74
2021/04/17 14:53:28;;;;;;;28.13;25.23;;;;;;;10.60;100.00;100627.58;233625;1203;103207;-73
2021/04/17 14:58:30;;;;;;;31.75;28.35;;;;;;;10.68;100.00;100622.84;233632;1203;103137;-72
2021/04/17 15:03:31;;;;;;;25.73;22.28;;;;;;;12.73;100.00;100627.91;232945;1203;103216;-71
2021/04/17 15:08:33;;;;;;;26.03;23.23;;;;;;;12.62;100.00;100616.80;232939;1203;103245;-72
2021/04/17 15:13:35;;;;;;;25.30;22.45;;;;;;;13.14;100.00;100616.24;232963;1203;103264;-72
2021/04/17 15:18:37;;;;;;;24.15;21.70;;;;;;;12.39;100.00;100622.25;232952;1203;103551;-71
2021/04/17 15:23:39;;;;;;;24.40;21.97;;;;;;;11.83;100.00;100613.05;232921;1202;103209;-71
2021/04/17 15:28:40;;;;;;;23.43;21.03;;;;;;;11.47;100.00;100619.81;233084;1203;104528;-73
2021/04/17 15:33:42;;;;;;;22.93;20.50;;;;;;;11.23;100.00;100621.66;233603;1202;103198;-75
2021/04/17 15:38:44;;;;;;;21.73;19.43;;;;;;;11.00;100.00;100615.41;233775;1203;103168;-71
2021/04/17 15:43:45;;;;;;;21.00;18.75;;;;;;;10.79;100.00;100603.77;233608;1202;103207;-72
2021/04/17 15:48:46;;;;;;;19.78;17.83;;;;;;;10.74;100.00;100602.20;232925;1202;103568;-71
2021/04/17 15:53:48;;;;;;;20.30;18.18;;;;;;;10.39;100.00;100607.02;232884;1202;103216;-70
2021/04/17 16:05:25;;;;;;;20.35;17.98;;;;;;;10.09;100.00;100615.13;232815;1203;103207;-70
2021/04/17 16:14:52;;;;;;;22.33;19.57;;;;;;;9.85;100.00;100612.40;232925;1202;103149;-73
2021/04/17 16:19:53;;;;;;;21.83;19.38;;;;;;;9.77;100.00;100609.12;233563;1203;103602;-72
2021/04/17 16:24:55;;;;;;;23.03;20.63;;;;;;;9.68;100.00;100605.83;232811;1203;103134;-71
2021/04/17 16:29:57;;;;;;;19.97;17.90;;;;;;;9.64;100.00;100619.28;232854;1203;103188;-71
2021/04/17 16:34:58;;;;;;;22.40;20.00;;;;;;;9.54;100.00;100616.95;232777;1203;103124;-72
2021/04/17 16:40:00;;;;;;;22.90;19.87;;;;;;;9.51;100.00;100653.42;232826;1203;103149;-72
2021/04/17 16:45:02;;;;;;;25.50;20.90;;;;;;;9.57;100.00;100680.70;232402;1176;114852;-71
2021/04/17 16:50:05;;;;;;;24.57;20.87;;;;;;;9.39;100.00;100679.48;232755;1176;116135;-71
2021/04/17 16:55:09;;;;;;;12.70;11.08;;;;;;;8.80;100.00;100602.38;232576;1177;115859;-73
2021/04/17 17:00:12;;;;;;;22.85;19.15;;;;;;;8.67;100.00;100610.67;233330;1177;116306;-74
2021/04/17 17:05:14;;;;;;;24.77;19.77;;;;;;;8.84;100.00;100634.14;234323;1177;116027;-73
2021/04/17 17:10:16;;;;;;;23.83;19.85;;;;;;;8.94;100.00;100661.33;233058;1177;116252;-73
2021/04/17 17:15:18;;;;;;;17.55;15.60;;;;;;;8.87;100.00;100660.63;232840;1177;116569;-71
2021/04/17 17:20:20;;;;;;;20.50;18.27;;;;;;;8.85;100.00;100673.08;232547;1177;117513;-71
2021/04/17 17:25:21;;;;;;;17.93;15.90;;;;;;;8.76;100.00;100679.53;232404;1177;116351;-72
2021/04/17 17:30:23;;;;;;;13.58;11.75;;;;;;;8.51;100.00;100676.67;232462;1176;117369;-72
2021/04/17 17:35:25;;;;;;;15.50;12.67;;;;;;;8.33;100.00;100671.83;232389;1177;117116;-72
2021/04/17 17:40:26;;;;;;;10.93;9.90;;;;;;;8.28;100.00;100686.08;232338;1177;116462;-73
2021/04/17 17:45:28;;;;;;;9.10;8.20;;;;;;;8.21;100.00;100679.19;232472;1176;115923;-74
2021/04/17 17:50:33;;;;;;;10.40;8.90;;;;;;;8.16;100.00;100688.20;232355;1177;116045;-71
2021/04/17 17:55:36;;;;;;;;;;;;;;;8.08;100.00;100675.98;232552;1176;115611;-72
2021/04/17 18:00:38;;;;;;;14.10;12.60;;;;;;;8.13;100.00;100673.22;232683;1176;103165;-72
2021/04/17 18:05:40;;;;;;;12.70;11.40;;;;;;;8.28;100.00;100678.11;232494;1177;115008;-71
2021/04/17 18:10:41;;;;;;;14.83;12.30;;;;;;;8.31;100.00;100671.88;232880;1176;114871;-72
2021/04/17 18:15:43;;;;;;;13.93;12.40;;;;;;;8.18;100.00;100670.42;232863;1176;115265;-72
2021/04/17 18:20:44;;;;;;;14.53;13.03;;;;;;;8.12;100.00;100674.98;233410;1177;115440;-71
2021/04/17 18:25:47;;;;;;;13.80;12.50;;;;;;;7.90;100.00;100671.11;233581;1177;114889;-71
2021/04/17 18:30:48;;;;;;;15.20;12.90;;;;;;;7.81;100.00;100675.77;233591;1177;114771;-72
2021/04/17 18:35:51;;;;;;;15.18;11.85;;;;;;;7.72;100.00;100681.28;233039;1176;115263;-71
2021/04/17 18:40:52;;;;;;;13.98;11.93;;;;;;;7.79;100.00;100679.34;232526;1177;114937;-72
2021/04/17 18:45:54;;;;;;;13.93;12.53;;;;;;;7.69;100.00;100684.00;232288;1169;115104;-71
2021/04/17 18:50:56;;;;;;;14.87;13.20;;;;;;;7.53;100.00;100694.09;232663;1177;115286;-72
2021/04/17 18:55:58;;;;;;;15.78;14.13;;;;;;;7.43;100.00;100692.58;232774;1177;115062;-72
2021/04/17 19:01:00;;;;;;;17.10;15.20;;;;;;;7.45;100.00;100681.02;232438;1177;114869;-72
2021/04/17 19:06:03;;;;;;;20.20;16.53;;;;;;;7.39;100.00;100685.57;232384;1177;114990;-70
2021/04/17 19:11:05;;;;;;;20.30;18.10;;;;;;;7.37;100.00;100688.27;232687;1177;115129;-73
2021/04/17 19:16:07;;;;;;;20.03;17.90;;;;;;;7.21;100.00;100698.34;233496;1176;114763;-73
2021/04/17 19:21:08;;;;;;;19.57;17.40;;;;;;;7.12;100.00;100693.22;233140;1176;114960;-73
2021/04/17 19:26:10;;;;;;;19.55;17.20;;;;;;;7.08;100.00;100708.31;233121;1177;114896;-73
2021/04/17 19:31:12;;;;;;;18.33;15.63;;;;;;;7.03;100.00;100710.20;233392;1177;115038;-72
2021/04/17 19:36:14;;;;;;;19.95;15.85;;;;;;;6.99;100.00;100711.14;233555;1176;114796;-74
2021/04/17 19:41:17;;;;;;;20.23;16.40;;;;;;;6.88;100.00;100714.00;233319;1176;115057;-73
2021/04/17 19:46:18;;;;;;;21.37;17.00;;;;;;;6.81;100.00;100709.73;232370;1177;114935;-71
2021/04/17 19:51:20;;;;;;;22.67;19.13;;;;;;;6.68;100.00;100715.27;232835;1176;115079;-72
2021/04/17 19:56:22;;;;;;;22.93;18.78;;;;;;;6.65;100.00;100709.16;233296;1177;115106;-72
2021/04/17 20:01:23;;;;;;;19.80;17.60;;;;;;;6.51;100.00;100718.23;232837;1177;114818;-72
2021/04/17 20:06:25;;;;;;;19.13;17.03;;;;;;;6.47;100.00;100716.55;232523;1177;115284;-72
2021/04/17 20:11:28;;;;;;;18.35;16.55;;;;;;;6.52;100.00;100703.20;232678;1177;115374;-73
2021/04/17 20:16:29;;;;;;;20.43;18.23;;;;;;;6.48;100.00;100706.81;233023;1176;114914;-73
2021/04/17 20:21:31;;;;;;;20.97;18.00;;;;;;;6.32;100.00;100711.52;232238;1176;115144;-72
2021/04/17 20:26:32;;;;;;;21.40;18.30;;;;;;;6.06;100.00;100705.77;232600;1177;114832;-71
2021/04/17 20:31:34;;;;;;;24.67;20.80;;;;;;;5.90;100.00;100713.05;232555;1176;116080;-71
2021/04/17 20:36:36;;;;;;;24.60;22.00;;;;;;;5.95;100.00;100718.27;234442;1177;115241;-71
2021/04/17 20:41:38;;;;;;;25.47;22.87;;;;;;;6.06;100.00;100720.78;232915;1177;114992;-71
2021/04/17 20:46:39;;;;;;;25.23;22.20;;;;;;;5.77;100.00;100719.42;232293;1170;115114;-73
2021/04/17 20:51:41;;;;;;;30.50;27.27;;;;;;;5.55;100.00;100725.02;232610;1176;115297;-70
2021/04/17 20:56:42;;;;;;;24.73;22.33;;;;;;;5.61;100.00;100723.18;233056;1176;115213;-71
2021/04/17 21:01:44;;;;;;;24.20;21.85;;;;;;;5.88;100.00;100720.13;232871;1176;114835;-71
2021/04/17 21:06:45;;;;;;;27.97;25.07;;;;;;;5.78;100.00;100723.79;232349;1176;114870;-70
2021/04/17 21:11:47;;;;;;;25.60;22.80;;;;;;;5.74;100.00;100717.67;232394;1176;115006;-72
2021/04/17 21:16:48;;;;;;;26.37;23.57;;;;;;;5.74;100.00;100717.67;232823;1177;114907;-73
2021/04/17 21:21:50;;;;;;;26.20;23.35;;;;;;;5.77;100.00;100724.72;233088;1177;114805;-72
2021/04/17 21:26:51;;;;;;;31.33;26.80;;;;;;;5.61;100.00;100723.18;232728;1176;114869;-71
2021/04/17 21:31:53;;;;;;;32.30;28.75;;;;;;;5.52;100.00;100717.12;232580;1177;115169;-71
2021/04/17 21:36:55;;;;;;;35.08;29.38;;;;;;;5.63;100.00;100721.40;232418;1176;115157;-70
2021/04/17 21:41:57;;;;;;;35.65;28.30;;;;;;;5.44;100.00;100737.50;232496;1176;115222;-71
2021/04/17 21:46:59;;;;;;;37.17;29.57;;;;;;;5.34;100.00;100742.03;232458;1177;115514;-70
2021/04/17 21:52:01;;;;;;;40.05;28.85;;;;;;;5.08;100.00;100739.70;232788;1176;115162;-72
2021/04/17 21:57:02;;;;;;;38.53;27.73;;;;;;;5.17;100.00;100750.17;232541;1176;114661;-72
2021/04/17 22:02:04;;;;;;;36.23;25.80;;;;;;;5.28;100.00;100755.33;233177;1177;114959;-72
2021/04/17 22:07:05;;;;;;;35.03;25.78;;;;;;;5.47;100.00;100761.27;233128;1177;114717;-70
2021/04/17 22:12:07;;;;;;;31.07;24.13;;;;;;;5.58;100.00;100767.28;232359;1176;114943;-71
2021/04/17 22:17:09;;;;;;;43.45;28.58;;;;;;;5.54;100.00;100757.65;232347;1170;115054;-71
2021/04/17 22:22:10;;;;;;;37.43;27.57;;;;;;;5.47;100.00;100752.44;233131;1176;114826;-70
2021/04/17 22:27:12;;;;;;;38.90;29.50;;;;;;;5.49;100.00;100755.95;232358;1177;114915;-71
2021/04/17 22:32:13;;;;;;;38.20;29.23;;;;;;;5.61;100.00;100755.78;232533;1177;115251;-71
2021/04/17 22:37:15;;;;;;;23.17;20.00;;;;;;;5.87;100.00;100762.49;232706;1176;115316;-71